createdAt,value
2019-05-30T15:30:34.210Z,18.70
2019-05-30T15:33:12.889Z,18.60
2019-05-30T15:35:50.651Z,18.70
2019-05-30T15:38:27.873Z,18.70
2019-05-30T15:41:06.976Z,18.70
2019-05-30T15:43:44.316Z,18.60
2019-05-30T15:46:25.373Z,18.70
2019-05-30T15:49:03.087Z,18.60
2019-05-30T15:51:40.361Z,18.60
2019-05-30T15:54:17.665Z,18.60
2019-05-30T15:56:55.137Z,18.50
2019-05-30T15:59:32.426Z,18.50
2019-05-30T16:02:10.157Z,18.50
2019-05-30T16:04:47.787Z,18.60
2019-05-30T16:07:25.623Z,18.60
2019-05-30T16:10:03.364Z,18.60
2019-05-30T16:12:41.154Z,18.60
2019-05-30T16:15:19.504Z,18.60
2019-05-30T16:17:56.984Z,18.50
2019-05-30T16:20:34.184Z,18.50
2019-05-30T16:23:12.597Z,18.40
2019-05-30T16:25:50.514Z,18.40
2019-05-30T16:28:27.848Z,18.30
2019-05-30T16:31:06.029Z,18.40
2019-05-30T16:33:43.750Z,18.40
2019-05-30T16:36:22.543Z,18.40
2019-05-30T16:39:00.910Z,18.40
2019-05-30T16:41:42.915Z,18.40
2019-05-30T16:44:20.447Z,18.40
2019-05-30T16:46:57.536Z,18.30
2019-05-30T16:49:35.338Z,18.20
2019-05-30T16:52:12.840Z,18.20
2019-05-30T16:54:50.554Z,18.20
2019-05-30T16:57:27.915Z,18.10
2019-05-30T17:00:06.784Z,18.10
2019-05-30T17:02:44.545Z,18.10
2019-05-30T17:05:21.777Z,18.00
2019-05-30T17:08:04.826Z,17.90
2019-05-30T17:10:43.120Z,17.90
2019-05-30T17:13:21.479Z,17.90
2019-05-30T17:15:59.594Z,17.90
2019-05-30T17:18:37.297Z,17.80
2019-05-30T17:21:14.479Z,17.80
2019-05-30T17:23:52.318Z,17.70
2019-05-30T17:26:31.527Z,17.70
2019-05-30T17:29:09.012Z,17.70
2019-05-30T17:31:46.408Z,17.60
2019-05-30T17:34:24.098Z,17.60
2019-05-30T17:37:01.407Z,17.50
2019-05-30T17:39:38.655Z,17.50
2019-05-30T17:42:16.158Z,17.40
2019-05-30T17:44:53.479Z,17.40
2019-05-30T17:47:42.255Z,17.30
2019-05-30T17:50:19.864Z,17.30
2019-05-30T17:52:57.803Z,17.20
2019-05-30T17:55:35.282Z,17.10
2019-05-30T17:58:12.642Z,17.00
2019-05-30T18:00:50.383Z,17.00
2019-05-30T18:03:28.523Z,16.90
2019-05-30T18:06:08.302Z,16.80
2019-05-30T18:08:45.698Z,16.70
2019-05-30T18:11:23.471Z,16.60
2019-05-30T18:14:00.833Z,16.50
2019-05-30T18:16:38.088Z,16.40
2019-05-30T18:19:15.329Z,16.30
2019-05-30T18:21:53.514Z,16.20
2019-05-30T18:24:31.782Z,16.10
2019-05-30T18:27:09.485Z,16.00
2019-05-30T18:29:46.848Z,15.90
2019-05-30T18:32:24.233Z,15.80
2019-05-30T18:35:01.816Z,15.70
2019-05-30T18:37:39.740Z,15.60
2019-05-30T18:40:26.692Z,15.50
2019-05-30T18:43:06.028Z,15.50
2019-05-30T18:45:45.024Z,15.40
2019-05-30T18:48:25.248Z,15.30
2019-05-30T18:51:02.959Z,15.20
2019-05-30T18:53:40.460Z,15.10
2019-05-30T18:56:18.739Z,15.00
2019-05-30T18:58:56.957Z,14.90
2019-05-30T19:01:34.751Z,14.80
2019-05-30T19:04:12.455Z,14.80
2019-05-30T19:06:50.490Z,14.70
2019-05-30T19:09:29.385Z,14.60
2019-05-30T19:12:06.803Z,14.50
2019-05-30T19:14:44.233Z,14.40
2019-05-30T19:17:21.509Z,14.30
2019-05-30T19:19:58.803Z,14.30
2019-05-30T19:22:36.534Z,14.20
2019-05-30T19:25:14.544Z,14.10
2019-05-30T19:27:52.223Z,14.10
2019-05-30T19:30:30.630Z,14.00
2019-05-30T19:33:08.652Z,14.00
2019-05-30T19:35:49.427Z,13.90
2019-05-30T19:38:24.718Z,13.80
2019-05-30T19:41:02.592Z,13.80
2019-05-30T19:43:40.793Z,13.70
2019-05-30T19:46:18.039Z,13.70
2019-05-30T19:48:55.458Z,13.60
2019-05-30T19:51:35.071Z,13.50
2019-05-30T19:54:12.862Z,13.50
2019-05-30T19:56:50.112Z,13.50
2019-05-30T19:59:27.324Z,13.40
2019-05-30T20:02:04.983Z,13.40
2019-05-30T20:04:42.505Z,13.40
2019-05-30T20:07:19.728Z,13.30
2019-05-30T20:10:01.514Z,13.30
2019-05-30T20:12:37.114Z,13.20
2019-05-30T20:15:15.839Z,13.20
2019-05-30T20:17:53.340Z,13.20
2019-05-30T20:20:47.714Z,13.20
2019-05-30T20:23:10.342Z,13.20
2019-05-30T20:25:48.653Z,13.20
2019-05-30T20:28:27.120Z,13.10
2019-05-30T20:31:04.549Z,13.10
2019-05-30T20:33:42.681Z,13.10
2019-05-30T20:36:19.959Z,13.10
2019-05-30T20:38:57.402Z,13.00
2019-05-30T20:41:34.805Z,13.10
2019-05-30T20:44:12.263Z,13.10
2019-05-30T20:46:49.468Z,13.10
2019-05-30T20:49:28.615Z,13.10
2019-05-30T20:52:06.223Z,13.10
2019-05-30T20:54:45.531Z,13.10
2019-05-30T20:57:22.996Z,13.10
2019-05-30T21:00:00.448Z,13.10
2019-05-30T21:02:40.896Z,13.20
2019-05-30T21:05:18.491Z,13.20
2019-05-30T21:07:55.898Z,13.20
2019-05-30T21:10:44.639Z,13.20
2019-05-30T21:13:22.337Z,13.20
2019-05-30T21:16:02.496Z,13.20
2019-05-30T21:18:39.929Z,13.30
2019-05-30T21:21:17.377Z,13.20
2019-05-30T21:23:54.781Z,13.20
2019-05-30T21:26:31.987Z,13.20
2019-05-30T21:29:09.728Z,13.10
2019-05-30T21:31:47.662Z,13.20
2019-05-30T21:34:25.329Z,13.20
2019-05-30T21:37:04.863Z,13.20
2019-05-30T21:39:43.976Z,13.20
2019-05-30T21:42:21.480Z,13.20
2019-05-30T21:44:59.224Z,13.20
2019-05-30T21:47:38.621Z,13.20
2019-05-30T21:50:18.183Z,13.30
2019-05-30T21:52:55.515Z,13.30
2019-05-30T21:55:32.964Z,13.40
2019-05-30T21:58:10.224Z,13.50
2019-05-30T22:01:36.908Z,13.40
2019-05-30T22:04:14.378Z,13.40
2019-05-30T22:06:51.610Z,13.50
2019-05-30T22:09:29.100Z,13.50
2019-05-30T22:12:07.090Z,13.60
2019-05-30T22:14:45.675Z,13.60
2019-05-30T22:17:23.188Z,13.60
2019-05-30T22:20:00.504Z,13.70
2019-05-30T22:22:38.001Z,13.80
2019-05-30T22:25:17.219Z,13.80
2019-05-30T22:27:54.929Z,13.80
2019-05-30T22:30:32.287Z,13.90
2019-05-30T22:33:09.661Z,13.90
2019-05-30T22:35:46.920Z,13.90
2019-05-30T22:38:24.508Z,13.90
2019-05-30T22:41:01.874Z,13.90
2019-05-30T22:43:39.703Z,13.90
2019-05-30T22:46:17.088Z,13.80
2019-05-30T22:48:54.360Z,13.80
2019-05-30T22:51:31.771Z,13.80
2019-05-30T22:54:09.187Z,13.70
2019-05-30T22:56:47.306Z,13.70
2019-05-30T22:59:26.775Z,13.70
2019-05-30T23:02:03.907Z,13.70
2019-05-30T23:04:41.230Z,13.70
2019-05-30T23:07:18.595Z,13.70
2019-05-30T23:09:56.292Z,13.70
2019-05-30T23:12:33.518Z,13.70
2019-05-30T23:15:11.133Z,13.70
2019-05-30T23:17:48.399Z,13.80
2019-05-30T23:20:26.025Z,13.80
2019-05-30T23:23:03.252Z,13.80
2019-05-30T23:25:40.479Z,13.90
2019-05-30T23:28:17.681Z,13.80
2019-05-30T23:30:56.034Z,13.80
2019-05-30T23:33:33.253Z,13.80
2019-05-30T23:36:10.549Z,13.80
2019-05-30T23:38:48.656Z,13.90
2019-05-30T23:41:25.930Z,13.90
2019-05-30T23:44:09.653Z,13.90
2019-05-30T23:46:42.244Z,14.00
2019-05-30T23:49:19.574Z,13.90
2019-05-30T23:51:58.230Z,14.00
2019-05-30T23:54:35.577Z,14.00
2019-05-30T23:57:13.012Z,14.10
2019-05-30T23:59:50.601Z,14.20
